sensor_id;sensor_type;location;lat;lon;timestamp;P1;durP1;ratioP1;P2;durP2;ratioP2
71360;SDS011;59166;48.908;1.870;2022-07-24T00:02:58;13.73;;;8.43;;
71360;SDS011;59166;48.908;1.870;2022-07-24T00:08:02;14.98;;;8.75;;
71360;SDS011;59166;48.908;1.870;2022-07-24T00:13:13;14.30;;;8.35;;
71360;SDS011;59166;48.908;1.870;2022-07-24T00:18:17;18.58;;;9.48;;
71360;SDS011;59166;48.908;1.870;2022-07-24T00:23:21;18.23;;;9.50;;
71360;SDS011;59166;48.908;1.870;2022-07-24T00:28:23;17.38;;;9.48;;
71360;SDS011;59166;48.908;1.870;2022-07-24T00:33:24;17.37;;;8.87;;
71360;SDS011;59166;48.908;1.870;2022-07-24T00:38:25;14.97;;;8.27;;
71360;SDS011;59166;48.908;1.870;2022-07-24T00:43:27;17.80;;;8.50;;
71360;SDS011;59166;48.908;1.870;2022-07-24T00:48:27;17.25;;;8.30;;
71360;SDS011;59166;48.908;1.870;2022-07-24T00:53:29;16.10;;;8.57;;
71360;SDS011;59166;48.908;1.870;2022-07-24T00:58:31;14.50;;;7.00;;
71360;SDS011;59166;48.908;1.870;2022-07-24T01:03:32;17.08;;;9.25;;
71360;SDS011;59166;48.908;1.870;2022-07-24T01:08:33;18.20;;;9.30;;
71360;SDS011;59166;48.908;1.870;2022-07-24T01:13:35;17.63;;;9.48;;
71360;SDS011;59166;48.908;1.870;2022-07-24T01:18:36;14.00;;;8.40;;
71360;SDS011;59166;48.908;1.870;2022-07-24T01:23:38;18.53;;;9.03;;
71360;SDS011;59166;48.908;1.870;2022-07-24T01:28:39;15.25;;;8.50;;
71360;SDS011;59166;48.908;1.870;2022-07-24T01:33:39;16.67;;;8.97;;
71360;SDS011;59166;48.908;1.870;2022-07-24T01:38:42;16.43;;;9.20;;
71360;SDS011;59166;48.908;1.870;2022-07-24T01:43:42;15.93;;;9.57;;
71360;SDS011;59166;48.908;1.870;2022-07-24T01:48:43;18.20;;;9.00;;
71360;SDS011;59166;48.908;1.870;2022-07-24T01:53:46;16.53;;;9.07;;
71360;SDS011;59166;48.908;1.870;2022-07-24T01:58:46;16.98;;;9.27;;
71360;SDS011;59166;48.908;1.870;2022-07-24T02:03:47;18.30;;;9.23;;
71360;SDS011;59166;48.908;1.870;2022-07-24T02:08:49;14.55;;;8.77;;
71360;SDS011;59166;48.908;1.870;2022-07-24T02:13:50;16.40;;;9.17;;
71360;SDS011;59166;48.908;1.870;2022-07-24T02:18:51;17.92;;;9.25;;
71360;SDS011;59166;48.908;1.870;2022-07-24T02:23:53;18.43;;;9.17;;
71360;SDS011;59166;48.908;1.870;2022-07-24T02:28:53;16.83;;;9.82;;
71360;SDS011;59166;48.908;1.870;2022-07-24T02:33:54;17.43;;;9.77;;
71360;SDS011;59166;48.908;1.870;2022-07-24T02:38:56;18.27;;;9.23;;
71360;SDS011;59166;48.908;1.870;2022-07-24T02:43:57;19.47;;;9.63;;
71360;SDS011;59166;48.908;1.870;2022-07-24T02:48:58;17.17;;;9.10;;
71360;SDS011;59166;48.908;1.870;2022-07-24T02:54:00;16.20;;;9.57;;
71360;SDS011;59166;48.908;1.870;2022-07-24T02:59:00;16.80;;;9.27;;
71360;SDS011;59166;48.908;1.870;2022-07-24T03:04:01;16.03;;;9.30;;
71360;SDS011;59166;48.908;1.870;2022-07-24T03:09:03;17.13;;;8.97;;
71360;SDS011;59166;48.908;1.870;2022-07-24T03:14:04;18.55;;;9.32;;
71360;SDS011;59166;48.908;1.870;2022-07-24T03:19:04;17.13;;;9.27;;
71360;SDS011;59166;48.908;1.870;2022-07-24T03:24:07;15.45;;;9.48;;
71360;SDS011;59166;48.908;1.870;2022-07-24T03:29:07;17.67;;;9.47;;
71360;SDS011;59166;48.908;1.870;2022-07-24T03:34:08;17.85;;;9.82;;
71360;SDS011;59166;48.908;1.870;2022-07-24T03:39:10;18.50;;;9.10;;
71360;SDS011;59166;48.908;1.870;2022-07-24T03:44:11;16.85;;;9.23;;
71360;SDS011;59166;48.908;1.870;2022-07-24T03:49:11;16.10;;;9.10;;
71360;SDS011;59166;48.908;1.870;2022-07-24T03:54:14;15.20;;;8.85;;
71360;SDS011;59166;48.908;1.870;2022-07-24T03:59:14;17.13;;;8.67;;
71360;SDS011;59166;48.908;1.870;2022-07-24T04:04:17;15.27;;;9.20;;
71360;SDS011;59166;48.908;1.870;2022-07-24T04:09:20;16.63;;;8.77;;
71360;SDS011;59166;48.908;1.870;2022-07-24T04:14:24;17.42;;;8.93;;
71360;SDS011;59166;48.908;1.870;2022-07-24T04:19:26;16.60;;;9.10;;
71360;SDS011;59166;48.908;1.870;2022-07-24T04:24:28;18.73;;;9.53;;
71360;SDS011;59166;48.908;1.870;2022-07-24T04:29:38;19.30;;;9.48;;
71360;SDS011;59166;48.908;1.870;2022-07-24T04:34:46;16.63;;;8.57;;
71360;SDS011;59166;48.908;1.870;2022-07-24T04:39:49;15.20;;;8.23;;
71360;SDS011;59166;48.908;1.870;2022-07-24T04:44:50;16.03;;;8.77;;
71360;SDS011;59166;48.908;1.870;2022-07-24T04:49:53;15.20;;;8.35;;
71360;SDS011;59166;48.908;1.870;2022-07-24T04:54:56;15.27;;;8.38;;
71360;SDS011;59166;48.908;1.870;2022-07-24T05:00:07;14.90;;;8.60;;
71360;SDS011;59166;48.908;1.870;2022-07-24T05:05:09;15.18;;;8.75;;
71360;SDS011;59166;48.908;1.870;2022-07-24T05:10:21;15.48;;;8.77;;
71360;SDS011;59166;48.908;1.870;2022-07-24T05:15:22;16.37;;;9.23;;
71360;SDS011;59166;48.908;1.870;2022-07-24T05:20:31;16.13;;;9.00;;
71360;SDS011;59166;48.908;1.870;2022-07-24T05:25:37;16.63;;;8.65;;
71360;SDS011;59166;48.908;1.870;2022-07-24T05:30:38;16.70;;;10.10;;
71360;SDS011;59166;48.908;1.870;2022-07-24T05:35:39;16.73;;;10.40;;
71360;SDS011;59166;48.908;1.870;2022-07-24T05:46:09;21.20;;;11.40;;
71360;SDS011;59166;48.908;1.870;2022-07-24T05:51:10;20.40;;;10.47;;
71360;SDS011;59166;48.908;1.870;2022-07-24T05:56:13;20.35;;;11.13;;
71360;SDS011;59166;48.908;1.870;2022-07-24T06:01:17;19.27;;;11.68;;
71360;SDS011;59166;48.908;1.870;2022-07-24T06:06:24;17.87;;;10.70;;
71360;SDS011;59166;48.908;1.870;2022-07-24T06:11:26;18.42;;;11.15;;
71360;SDS011;59166;48.908;1.870;2022-07-24T06:16:30;19.35;;;11.18;;
71360;SDS011;59166;48.908;1.870;2022-07-24T06:21:31;20.40;;;11.00;;
71360;SDS011;59166;48.908;1.870;2022-07-24T06:26:33;18.58;;;10.13;;
71360;SDS011;59166;48.908;1.870;2022-07-24T06:31:34;21.17;;;9.67;;
71360;SDS011;59166;48.908;1.870;2022-07-24T06:36:34;20.30;;;9.45;;
71360;SDS011;59166;48.908;1.870;2022-07-24T06:41:36;16.00;;;9.20;;
71360;SDS011;59166;48.908;1.870;2022-07-24T06:46:37;19.92;;;10.02;;
71360;SDS011;59166;48.908;1.870;2022-07-24T06:51:38;17.90;;;9.30;;
71360;SDS011;59166;48.908;1.870;2022-07-24T06:56:40;18.83;;;9.70;;
71360;SDS011;59166;48.908;1.870;2022-07-24T07:01:40;16.17;;;9.18;;
71360;SDS011;59166;48.908;1.870;2022-07-24T07:06:41;17.23;;;9.33;;
71360;SDS011;59166;48.908;1.870;2022-07-24T07:11:43;17.40;;;9.73;;
71360;SDS011;59166;48.908;1.870;2022-07-24T07:16:44;17.03;;;9.50;;
71360;SDS011;59166;48.908;1.870;2022-07-24T07:21:44;17.60;;;9.70;;
71360;SDS011;59166;48.908;1.870;2022-07-24T07:26:46;15.43;;;9.40;;
71360;SDS011;59166;48.908;1.870;2022-07-24T07:31:47;18.88;;;10.23;;
71360;SDS011;59166;48.908;1.870;2022-07-24T07:36:48;19.67;;;10.33;;
71360;SDS011;59166;48.908;1.870;2022-07-24T07:41:50;17.17;;;9.50;;
71360;SDS011;59166;48.908;1.870;2022-07-24T07:46:51;16.23;;;9.73;;
71360;SDS011;59166;48.908;1.870;2022-07-24T07:51:52;16.60;;;9.43;;
71360;SDS011;59166;48.908;1.870;2022-07-24T07:56:54;17.70;;;9.57;;
71360;SDS011;59166;48.908;1.870;2022-07-24T08:01:54;14.63;;;8.50;;
71360;SDS011;59166;48.908;1.870;2022-07-24T08:06:55;15.90;;;8.25;;
71360;SDS011;59166;48.908;1.870;2022-07-24T08:11:57;14.77;;;8.10;;
71360;SDS011;59166;48.908;1.870;2022-07-24T08:16:58;14.48;;;7.90;;
71360;SDS011;59166;48.908;1.870;2022-07-24T08:21:58;13.47;;;7.17;;
71360;SDS011;59166;48.908;1.870;2022-07-24T08:27:00;12.90;;;6.50;;
71360;SDS011;59166;48.908;1.870;2022-07-24T08:32:01;12.05;;;6.80;;
71360;SDS011;59166;48.908;1.870;2022-07-24T08:37:02;12.30;;;6.47;;
71360;SDS011;59166;48.908;1.870;2022-07-24T08:42:06;12.40;;;6.22;;
71360;SDS011;59166;48.908;1.870;2022-07-24T08:47:07;10.40;;;6.30;;
71360;SDS011;59166;48.908;1.870;2022-07-24T08:52:08;10.80;;;5.68;;
71360;SDS011;59166;48.908;1.870;2022-07-24T08:57:11;9.75;;;5.60;;
71360;SDS011;59166;48.908;1.870;2022-07-24T09:02:11;10.97;;;5.70;;
71360;SDS011;59166;48.908;1.870;2022-07-24T09:07:13;11.48;;;5.82;;
71360;SDS011;59166;48.908;1.870;2022-07-24T09:12:17;10.38;;;5.70;;
71360;SDS011;59166;48.908;1.870;2022-07-24T09:17:18;11.83;;;5.60;;
71360;SDS011;59166;48.908;1.870;2022-07-24T09:27:43;8.77;;;4.80;;
71360;SDS011;59166;48.908;1.870;2022-07-24T09:32:50;9.57;;;4.30;;
71360;SDS011;59166;48.908;1.870;2022-07-24T09:37:55;9.15;;;4.30;;
71360;SDS011;59166;48.908;1.870;2022-07-24T09:48:25;7.82;;;4.10;;
71360;SDS011;59166;48.908;1.870;2022-07-24T09:53:28;7.78;;;4.10;;
71360;SDS011;59166;48.908;1.870;2022-07-24T09:58:30;7.20;;;3.77;;
71360;SDS011;59166;48.908;1.870;2022-07-24T10:03:36;8.35;;;3.88;;
71360;SDS011;59166;48.908;1.870;2022-07-24T10:08:39;8.35;;;4.03;;
71360;SDS011;59166;48.908;1.870;2022-07-24T10:13:41;7.97;;;3.93;;
71360;SDS011;59166;48.908;1.870;2022-07-24T10:18:45;8.57;;;4.10;;
71360;SDS011;59166;48.908;1.870;2022-07-24T10:23:56;7.38;;;3.40;;
71360;SDS011;59166;48.908;1.870;2022-07-24T10:29:11;9.17;;;4.23;;
71360;SDS011;59166;48.908;1.870;2022-07-24T10:34:15;8.15;;;3.53;;
71360;SDS011;59166;48.908;1.870;2022-07-24T10:39:25;9.10;;;4.10;;
71360;SDS011;59166;48.908;1.870;2022-07-24T10:44:30;7.13;;;3.42;;
71360;SDS011;59166;48.908;1.870;2022-07-24T10:49:37;7.27;;;3.40;;
71360;SDS011;59166;48.908;1.870;2022-07-24T10:54:41;7.85;;;4.00;;
71360;SDS011;59166;48.908;1.870;2022-07-24T10:59:41;7.97;;;4.00;;
71360;SDS011;59166;48.908;1.870;2022-07-24T11:04:43;7.70;;;4.18;;
71360;SDS011;59166;48.908;1.870;2022-07-24T11:09:54;9.30;;;3.90;;
71360;SDS011;59166;48.908;1.870;2022-07-24T11:14:57;9.43;;;3.72;;
71360;SDS011;59166;48.908;1.870;2022-07-24T11:20:00;7.88;;;3.70;;
71360;SDS011;59166;48.908;1.870;2022-07-24T11:25:05;7.60;;;3.57;;
71360;SDS011;59166;48.908;1.870;2022-07-24T11:30:07;7.45;;;3.38;;
71360;SDS011;59166;48.908;1.870;2022-07-24T11:35:12;7.85;;;4.20;;
71360;SDS011;59166;48.908;1.870;2022-07-24T11:40:14;8.15;;;3.85;;
71360;SDS011;59166;48.908;1.870;2022-07-24T11:45:15;7.60;;;3.43;;
71360;SDS011;59166;48.908;1.870;2022-07-24T11:50:19;7.50;;;3.80;;
71360;SDS011;59166;48.908;1.870;2022-07-24T11:55:21;7.10;;;3.60;;
71360;SDS011;59166;48.908;1.870;2022-07-24T12:00:23;8.30;;;3.97;;
71360;SDS011;59166;48.908;1.870;2022-07-24T12:05:27;8.02;;;3.90;;
71360;SDS011;59166;48.908;1.870;2022-07-24T12:10:29;7.83;;;3.60;;
71360;SDS011;59166;48.908;1.870;2022-07-24T12:15:30;7.50;;;3.80;;
71360;SDS011;59166;48.908;1.870;2022-07-24T12:20:33;10.07;;;4.00;;
71360;SDS011;59166;48.908;1.870;2022-07-24T12:25:35;8.25;;;3.63;;
71360;SDS011;59166;48.908;1.870;2022-07-24T12:30:37;7.80;;;3.80;;
71360;SDS011;59166;48.908;1.870;2022-07-24T12:35:53;8.97;;;3.80;;
71360;SDS011;59166;48.908;1.870;2022-07-24T12:41:02;9.07;;;3.90;;
71360;SDS011;59166;48.908;1.870;2022-07-24T12:46:05;7.70;;;3.70;;
71360;SDS011;59166;48.908;1.870;2022-07-24T12:51:09;7.32;;;3.22;;
71360;SDS011;59166;48.908;1.870;2022-07-24T12:56:12;8.20;;;3.90;;
71360;SDS011;59166;48.908;1.870;2022-07-24T13:01:14;7.13;;;3.60;;
71360;SDS011;59166;48.908;1.870;2022-07-24T13:06:16;8.07;;;3.77;;
71360;SDS011;59166;48.908;1.870;2022-07-24T13:11:17;7.05;;;3.65;;
71360;SDS011;59166;48.908;1.870;2022-07-24T13:16:17;8.00;;;3.87;;
71360;SDS011;59166;48.908;1.870;2022-07-24T13:21:20;7.18;;;3.33;;
71360;SDS011;59166;48.908;1.870;2022-07-24T13:26:21;8.13;;;3.60;;
71360;SDS011;59166;48.908;1.870;2022-07-24T13:31:22;8.00;;;3.80;;
71360;SDS011;59166;48.908;1.870;2022-07-24T13:36:24;8.20;;;3.83;;
71360;SDS011;59166;48.908;1.870;2022-07-24T13:41:25;7.10;;;3.80;;
71360;SDS011;59166;48.908;1.870;2022-07-24T13:46:25;7.10;;;3.70;;
71360;SDS011;59166;48.908;1.870;2022-07-24T13:51:28;7.33;;;3.87;;
71360;SDS011;59166;48.908;1.870;2022-07-24T13:56:28;7.35;;;3.75;;
71360;SDS011;59166;48.908;1.870;2022-07-24T14:01:29;6.93;;;3.97;;
71360;SDS011;59166;48.908;1.870;2022-07-24T14:06:31;7.82;;;4.05;;
71360;SDS011;59166;48.908;1.870;2022-07-24T14:11:32;7.53;;;3.87;;
71360;SDS011;59166;48.908;1.870;2022-07-24T14:16:33;7.45;;;3.83;;
71360;SDS011;59166;48.908;1.870;2022-07-24T14:21:35;8.03;;;4.00;;
71360;SDS011;59166;48.908;1.870;2022-07-24T14:26:36;10.90;;;4.20;;
71360;SDS011;59166;48.908;1.870;2022-07-24T14:31:37;8.27;;;4.10;;
71360;SDS011;59166;48.908;1.870;2022-07-24T14:36:39;7.18;;;3.85;;
71360;SDS011;59166;48.908;1.870;2022-07-24T14:41:40;7.75;;;4.15;;
71360;SDS011;59166;48.908;1.870;2022-07-24T14:46:40;8.13;;;4.30;;
71360;SDS011;59166;48.908;1.870;2022-07-24T14:51:43;7.90;;;4.50;;
71360;SDS011;59166;48.908;1.870;2022-07-24T14:56:43;7.55;;;4.03;;
71360;SDS011;59166;48.908;1.870;2022-07-24T15:01:44;7.60;;;4.40;;
71360;SDS011;59166;48.908;1.870;2022-07-24T15:06:49;9.95;;;4.47;;
71360;SDS011;59166;48.908;1.870;2022-07-24T15:11:50;9.80;;;4.25;;
71360;SDS011;59166;48.908;1.870;2022-07-24T15:16:51;7.43;;;4.20;;
71360;SDS011;59166;48.908;1.870;2022-07-24T15:21:53;8.70;;;4.10;;
71360;SDS011;59166;48.908;1.870;2022-07-24T15:26:53;10.57;;;3.73;;
71360;SDS011;59166;48.908;1.870;2022-07-24T15:31:54;7.57;;;3.88;;
71360;SDS011;59166;48.908;1.870;2022-07-24T15:36:56;7.77;;;4.23;;
71360;SDS011;59166;48.908;1.870;2022-07-24T15:41:57;7.68;;;4.35;;
71360;SDS011;59166;48.908;1.870;2022-07-24T15:46:58;7.97;;;4.50;;
71360;SDS011;59166;48.908;1.870;2022-07-24T15:52:00;8.05;;;4.55;;
71360;SDS011;59166;48.908;1.870;2022-07-24T15:57:01;7.45;;;4.20;;
71360;SDS011;59166;48.908;1.870;2022-07-24T16:02:02;7.50;;;4.20;;
71360;SDS011;59166;48.908;1.870;2022-07-24T16:07:04;8.63;;;4.40;;
71360;SDS011;59166;48.908;1.870;2022-07-24T16:12:05;8.48;;;4.60;;
71360;SDS011;59166;48.908;1.870;2022-07-24T16:17:06;8.37;;;4.33;;
71360;SDS011;59166;48.908;1.870;2022-07-24T16:22:08;7.65;;;4.35;;
71360;SDS011;59166;48.908;1.870;2022-07-24T16:27:09;7.95;;;4.15;;
71360;SDS011;59166;48.908;1.870;2022-07-24T16:32:10;7.40;;;4.20;;
71360;SDS011;59166;48.908;1.870;2022-07-24T16:37:12;8.03;;;4.30;;
71360;SDS011;59166;48.908;1.870;2022-07-24T16:42:13;7.80;;;4.30;;
71360;SDS011;59166;48.908;1.870;2022-07-24T16:47:13;8.03;;;4.40;;
71360;SDS011;59166;48.908;1.870;2022-07-24T16:52:15;7.65;;;4.60;;
71360;SDS011;59166;48.908;1.870;2022-07-24T16:57:16;8.43;;;4.60;;
71360;SDS011;59166;48.908;1.870;2022-07-24T17:02:17;7.45;;;4.25;;
71360;SDS011;59166;48.908;1.870;2022-07-24T17:07:19;8.80;;;4.37;;
71360;SDS011;59166;48.908;1.870;2022-07-24T17:12:19;7.35;;;4.47;;
71360;SDS011;59166;48.908;1.870;2022-07-24T17:17:20;7.70;;;4.50;;
71360;SDS011;59166;48.908;1.870;2022-07-24T17:22:23;8.40;;;4.50;;
71360;SDS011;59166;48.908;1.870;2022-07-24T17:27:24;7.82;;;4.30;;
71360;SDS011;59166;48.908;1.870;2022-07-24T17:32:24;8.40;;;4.57;;
71360;SDS011;59166;48.908;1.870;2022-07-24T17:37:26;7.90;;;4.28;;
71360;SDS011;59166;48.908;1.870;2022-07-24T17:42:27;7.30;;;4.27;;
71360;SDS011;59166;48.908;1.870;2022-07-24T17:47:28;7.23;;;4.10;;
71360;SDS011;59166;48.908;1.870;2022-07-24T17:52:30;7.80;;;4.27;;
71360;SDS011;59166;48.908;1.870;2022-07-24T17:57:31;8.73;;;4.35;;
71360;SDS011;59166;48.908;1.870;2022-07-24T18:02:31;8.13;;;4.10;;
71360;SDS011;59166;48.908;1.870;2022-07-24T18:07:34;7.47;;;4.20;;
71360;SDS011;59166;48.908;1.870;2022-07-24T18:12:35;7.70;;;3.80;;
71360;SDS011;59166;48.908;1.870;2022-07-24T18:17:36;7.90;;;4.30;;
71360;SDS011;59166;48.908;1.870;2022-07-24T18:22:38;9.73;;;4.20;;
71360;SDS011;59166;48.908;1.870;2022-07-24T18:27:39;10.02;;;4.18;;
71360;SDS011;59166;48.908;1.870;2022-07-24T18:32:39;7.97;;;4.20;;
71360;SDS011;59166;48.908;1.870;2022-07-24T18:37:41;8.52;;;4.32;;
71360;SDS011;59166;48.908;1.870;2022-07-24T18:42:42;8.07;;;4.07;;
71360;SDS011;59166;48.908;1.870;2022-07-24T18:47:43;7.53;;;4.20;;
71360;SDS011;59166;48.908;1.870;2022-07-24T18:52:45;8.07;;;3.90;;
71360;SDS011;59166;48.908;1.870;2022-07-24T18:57:46;9.90;;;4.30;;
71360;SDS011;59166;48.908;1.870;2022-07-24T19:02:46;7.93;;;4.30;;
71360;SDS011;59166;48.908;1.870;2022-07-24T19:07:48;9.20;;;4.10;;
71360;SDS011;59166;48.908;1.870;2022-07-24T19:12:49;9.65;;;4.28;;
71360;SDS011;59166;48.908;1.870;2022-07-24T19:17:50;8.03;;;4.40;;
71360;SDS011;59166;48.908;1.870;2022-07-24T19:22:52;8.60;;;4.30;;
71360;SDS011;59166;48.908;1.870;2022-07-24T19:27:52;10.03;;;4.17;;
71360;SDS011;59166;48.908;1.870;2022-07-24T19:32:53;8.27;;;4.40;;
71360;SDS011;59166;48.908;1.870;2022-07-24T19:37:55;7.63;;;4.33;;
71360;SDS011;59166;48.908;1.870;2022-07-24T19:42:59;8.95;;;4.50;;
71360;SDS011;59166;48.908;1.870;2022-07-24T19:48:00;8.63;;;4.23;;
71360;SDS011;59166;48.908;1.870;2022-07-24T19:53:02;9.40;;;4.45;;
71360;SDS011;59166;48.908;1.870;2022-07-24T19:58:06;8.93;;;4.57;;
71360;SDS011;59166;48.908;1.870;2022-07-24T20:03:07;9.98;;;4.47;;
71360;SDS011;59166;48.908;1.870;2022-07-24T20:08:12;7.60;;;4.30;;
71360;SDS011;59166;48.908;1.870;2022-07-24T20:13:13;9.27;;;4.70;;
71360;SDS011;59166;48.908;1.870;2022-07-24T20:18:14;7.95;;;4.25;;
71360;SDS011;59166;48.908;1.870;2022-07-24T20:23:16;9.60;;;4.43;;
71360;SDS011;59166;48.908;1.870;2022-07-24T20:28:17;9.73;;;4.30;;
71360;SDS011;59166;48.908;1.870;2022-07-24T20:33:18;10.23;;;4.57;;
71360;SDS011;59166;48.908;1.870;2022-07-24T20:38:20;8.00;;;4.50;;
71360;SDS011;59166;48.908;1.870;2022-07-24T20:43:20;7.63;;;4.47;;
71360;SDS011;59166;48.908;1.870;2022-07-24T20:48:21;9.02;;;4.93;;
71360;SDS011;59166;48.908;1.870;2022-07-24T20:53:23;9.83;;;4.70;;
71360;SDS011;59166;48.908;1.870;2022-07-24T20:58:24;8.20;;;4.47;;
71360;SDS011;59166;48.908;1.870;2022-07-24T21:03:24;8.67;;;4.77;;
71360;SDS011;59166;48.908;1.870;2022-07-24T21:08:26;8.60;;;4.67;;
71360;SDS011;59166;48.908;1.870;2022-07-24T21:13:27;8.35;;;4.63;;
71360;SDS011;59166;48.908;1.870;2022-07-24T21:18:28;10.85;;;4.55;;
71360;SDS011;59166;48.908;1.870;2022-07-24T21:23:30;9.53;;;4.70;;
71360;SDS011;59166;48.908;1.870;2022-07-24T21:28:30;9.18;;;5.00;;
71360;SDS011;59166;48.908;1.870;2022-07-24T21:33:31;9.37;;;5.03;;
71360;SDS011;59166;48.908;1.870;2022-07-24T21:38:34;8.85;;;4.90;;
71360;SDS011;59166;48.908;1.870;2022-07-24T21:43:34;8.47;;;5.03;;
71360;SDS011;59166;48.908;1.870;2022-07-24T21:48:35;9.50;;;5.10;;
71360;SDS011;59166;48.908;1.870;2022-07-24T21:53:37;9.73;;;4.90;;
71360;SDS011;59166;48.908;1.870;2022-07-24T21:58:38;9.43;;;5.15;;
71360;SDS011;59166;48.908;1.870;2022-07-24T22:03:38;8.73;;;4.80;;
71360;SDS011;59166;48.908;1.870;2022-07-24T22:08:40;10.40;;;4.93;;
71360;SDS011;59166;48.908;1.870;2022-07-24T22:13:41;8.73;;;4.72;;
71360;SDS011;59166;48.908;1.870;2022-07-24T22:18:42;8.52;;;4.95;;
71360;SDS011;59166;48.908;1.870;2022-07-24T22:23:44;9.00;;;4.83;;
71360;SDS011;59166;48.908;1.870;2022-07-24T22:28:45;9.02;;;5.10;;
71360;SDS011;59166;48.908;1.870;2022-07-24T22:33:46;9.47;;;4.37;;
71360;SDS011;59166;48.908;1.870;2022-07-24T22:38:49;9.73;;;4.75;;
71360;SDS011;59166;48.908;1.870;2022-07-24T22:43:50;9.70;;;4.80;;
71360;SDS011;59166;48.908;1.870;2022-07-24T22:54:28;8.77;;;4.90;;
71360;SDS011;59166;48.908;1.870;2022-07-24T22:59:29;9.80;;;4.72;;
71360;SDS011;59166;48.908;1.870;2022-07-24T23:04:52;9.88;;;4.88;;
71360;SDS011;59166;48.908;1.870;2022-07-24T23:10:03;10.60;;;5.05;;
71360;SDS011;59166;48.908;1.870;2022-07-24T23:15:16;9.63;;;4.80;;
71360;SDS011;59166;48.908;1.870;2022-07-24T23:20:17;10.45;;;4.75;;
71360;SDS011;59166;48.908;1.870;2022-07-24T23:25:20;9.05;;;4.80;;
71360;SDS011;59166;48.908;1.870;2022-07-24T23:30:21;8.77;;;4.90;;
71360;SDS011;59166;48.908;1.870;2022-07-24T23:35:22;8.95;;;4.80;;
71360;SDS011;59166;48.908;1.870;2022-07-24T23:40:24;10.40;;;4.93;;
71360;SDS011;59166;48.908;1.870;2022-07-24T23:45:25;10.17;;;4.90;;
71360;SDS011;59166;48.908;1.870;2022-07-24T23:50:26;9.43;;;5.00;;
71360;SDS011;59166;48.908;1.870;2022-07-24T23:55:28;9.87;;;5.10;;
